createdAt,value
2022-11-28T00:07:18.830Z,13.2
2022-11-28T00:17:26.692Z,12.9
2022-11-28T00:27:34.718Z,12.6
2022-11-28T00:37:42.829Z,12.6
2022-11-28T00:47:51.136Z,12.8
2022-11-28T00:57:59.170Z,12.8
2022-11-28T01:08:07.197Z,12.9
2022-11-28T01:18:15.467Z,13.1
2022-11-28T01:28:23.831Z,12.9
2022-11-28T01:38:32.031Z,12.7
2022-11-28T01:48:40.026Z,12.8
2022-11-28T01:58:48.138Z,13.9
2022-11-28T02:08:55.989Z,13.4
2022-11-28T02:19:05.295Z,12.5
2022-11-28T02:29:13.338Z,12.4
2022-11-28T02:39:21.410Z,12.7
2022-11-28T02:49:29.436Z,12.9
2022-11-28T02:59:37.424Z,12.9
2022-11-28T03:09:45.539Z,12.9
2022-11-28T03:19:53.700Z,12.8
2022-11-28T03:30:03.217Z,12.8
2022-11-28T03:40:10.254Z,12.4
2022-11-28T03:50:19.739Z,12.2
2022-11-28T04:00:20.245Z,12.3
2022-11-28T04:10:28.307Z,12.4
2022-11-28T04:20:37.623Z,12.5
2022-11-28T04:30:38.968Z,12.4
2022-11-28T04:40:47.205Z,12
2022-11-28T04:50:55.237Z,11.7
2022-11-28T05:01:03.366Z,11.5
2022-11-28T05:11:11.612Z,11.5
2022-11-28T05:21:19.662Z,11.5
2022-11-28T05:31:27.885Z,11.4
2022-11-28T05:41:36.951Z,11.6
2022-11-28T05:51:45.268Z,11.4
2022-11-28T06:01:53.490Z,11.4
2022-11-28T06:12:01.469Z,11.4
2022-11-28T06:22:09.521Z,11.4
2022-11-28T06:32:21.764Z,11.4
2022-11-28T06:42:24.885Z,11.6
2022-11-28T06:52:25.276Z,11.7
2022-11-28T07:02:33.280Z,11.8
2022-11-28T07:12:41.243Z,11.9
2022-11-28T07:22:49.184Z,11.9
2022-11-28T07:32:57.044Z,11.9
2022-11-28T07:43:05.024Z,11.6
2022-11-28T07:53:13.058Z,11.7
2022-11-28T08:03:21.260Z,11.8
2022-11-28T08:13:29.485Z,11.6
2022-11-28T08:23:37.725Z,11.5
2022-11-28T08:33:47.510Z,11.6
2022-11-28T08:43:55.679Z,11.6
2022-11-28T08:54:06.021Z,11.8
2022-11-28T09:04:04.133Z,11.9
2022-11-28T09:14:12.119Z,11.9
2022-11-28T09:24:20.297Z,11.9
2022-11-28T09:34:30.093Z,11.9
2022-11-28T09:44:37.951Z,12
2022-11-28T09:54:45.942Z,12
2022-11-28T10:04:54.977Z,11.9
2022-11-28T10:15:03.801Z,12.1
2022-11-28T10:25:12.203Z,12.1
2022-11-28T10:35:23.912Z,11.9
2022-11-28T10:45:27.733Z,11.8
2022-11-28T10:55:35.748Z,11.7
2022-11-28T11:05:44.535Z,12.3
2022-11-28T11:15:53.553Z,12.5
2022-11-28T11:26:02.790Z,12.8
2022-11-28T11:36:12.316Z,12.8
2022-11-28T11:46:20.431Z,13
2022-11-28T11:56:28.506Z,13
2022-11-28T12:06:37.105Z,13.2
2022-11-28T12:16:45.151Z,13.3
2022-11-28T12:26:53.232Z,13.7
2022-11-28T12:37:01.245Z,14.1
2022-11-28T12:47:09.157Z,14.2
2022-11-28T12:57:10.533Z,14.1
2022-11-28T13:07:18.671Z,14.3
2022-11-28T13:17:28.158Z,14.4
2022-11-28T13:27:36.604Z,14.5
2022-11-28T13:47:51.557Z,15.1
2022-11-28T13:57:56.128Z,15.4
2022-11-28T14:08:04.242Z,15.4
2022-11-28T14:18:31.860Z,15.6
2022-11-28T14:28:14.567Z,16.1
2022-11-28T14:38:23.103Z,16.3
2022-11-28T14:48:31.179Z,16.1
2022-11-28T14:58:40.801Z,16.4
2022-11-28T15:08:48.829Z,16.5
2022-11-28T15:18:56.706Z,16.2
2022-11-28T15:29:04.806Z,16.1
2022-11-28T15:39:12.959Z,15.8
2022-11-28T15:49:21.212Z,16
2022-11-28T15:59:29.495Z,15.7
2022-11-28T16:09:37.653Z,15.4
2022-11-28T16:19:46.033Z,15.3
2022-11-28T16:29:54.092Z,14.8
2022-11-28T16:40:03.344Z,14.7
2022-11-28T16:50:15.494Z,14.6
2022-11-28T17:00:18.293Z,14.3
2022-11-28T17:10:26.231Z,13.9
2022-11-28T17:20:34.288Z,13.9
2022-11-28T17:30:42.896Z,13.9
2022-11-28T17:40:50.844Z,13.6
2022-11-28T17:51:01.305Z,13.5
2022-11-28T18:11:02.690Z,13.2
2022-11-28T18:21:10.645Z,13
2022-11-28T18:31:18.836Z,12.8
2022-11-28T18:51:24.243Z,12.7
2022-11-28T19:01:22.416Z,12.9
2022-11-28T19:11:28.266Z,13
2022-11-28T19:21:30.502Z,12.9
2022-11-28T19:31:38.413Z,12.8
2022-11-28T19:41:38.727Z,12.9
2022-11-28T20:01:42.361Z,12.8
2022-11-28T20:21:46.443Z,12.9
2022-11-28T20:31:49.058Z,12.8
2022-11-28T20:42:02.627Z,12.8
2022-11-28T21:02:04.173Z,12.7
2022-11-28T21:12:07.376Z,12.6
2022-11-28T21:22:14.436Z,12.5
2022-11-28T21:32:25.194Z,12.5
2022-11-28T21:42:29.784Z,12.4
2022-11-28T21:52:29.986Z,12.5
2022-11-28T22:02:38.361Z,12.2
2022-11-28T22:12:47.083Z,12.1
2022-11-28T22:22:55.411Z,12
2022-11-28T22:33:03.523Z,12
2022-11-28T22:43:11.705Z,11.9
2022-11-28T22:53:19.880Z,11.8
2022-11-28T23:03:27.998Z,11.6
2022-11-28T23:13:36.020Z,11.7
2022-11-28T23:23:44.234Z,11.8
2022-11-28T23:33:52.424Z,11.8
2022-11-28T23:44:00.806Z,11.6
2022-11-28T23:54:08.909Z,11.6
